createdAt,value
2019-05-09T00:00:43.744Z,11.99
2019-05-09T00:03:18.218Z,11.96
2019-05-09T00:06:04.601Z,11.94
2019-05-09T00:08:36.932Z,11.96
2019-05-09T00:11:08.826Z,11.96
2019-05-09T00:13:43.460Z,11.97
2019-05-09T00:16:16.363Z,11.96
2019-05-09T00:18:54.049Z,11.97
2019-05-09T00:21:28.402Z,11.96
2019-05-09T00:24:03.511Z,11.96
2019-05-09T00:26:36.755Z,11.93
2019-05-09T00:29:21.163Z,11.94
2019-05-09T00:31:54.535Z,11.94
2019-05-09T00:34:39.945Z,11.96
2019-05-09T00:37:13.534Z,11.92
2019-05-09T00:39:45.688Z,11.93
2019-05-09T00:42:18.622Z,11.93
2019-05-09T00:44:58.928Z,11.93
2019-05-09T00:47:32.927Z,11.92
2019-05-09T00:50:08.377Z,11.93
2019-05-09T00:52:43.045Z,11.92
2019-05-09T00:55:15.842Z,11.93
2019-05-09T00:57:48.849Z,11.92
2019-05-09T01:00:24.124Z,11.93
2019-05-09T01:02:56.671Z,11.93
2019-05-09T01:05:28.416Z,11.93
2019-05-09T01:08:04.194Z,11.93
2019-05-09T01:10:37.145Z,11.93
2019-05-09T01:13:14.037Z,11.94
2019-05-09T01:15:46.496Z,11.92
2019-05-09T01:18:20.440Z,11.93
2019-05-09T01:20:53.093Z,11.94
2019-05-09T01:23:27.630Z,11.92
2019-05-09T01:25:59.736Z,11.90
2019-05-09T01:28:33.854Z,11.88
2019-05-09T01:31:07.449Z,11.85
2019-05-09T01:33:53.280Z,11.83
2019-05-09T01:36:26.163Z,11.83
2019-05-09T01:38:59.060Z,11.79
2019-05-09T01:41:34.067Z,11.79
2019-05-09T01:44:06.567Z,11.75
2019-05-09T01:46:39.548Z,11.75
2019-05-09T01:49:13.800Z,11.72
2019-05-09T01:51:47.068Z,11.71
2019-05-09T01:54:20.495Z,11.69
2019-05-09T01:56:53.776Z,11.65
2019-05-09T01:59:25.839Z,11.64
2019-05-09T02:01:57.472Z,11.62
2019-05-09T02:04:30.743Z,11.61
2019-05-09T02:07:04.469Z,11.57
2019-05-09T02:09:36.441Z,11.55
2019-05-09T02:12:09.423Z,11.54
2019-05-09T02:15:03.881Z,11.51
2019-05-09T02:17:58.900Z,11.54
2019-05-09T02:20:24.234Z,11.50
2019-05-09T02:22:57.315Z,11.50
2019-05-09T02:25:30.318Z,11.51
2019-05-09T02:28:03.500Z,11.51
2019-05-09T02:30:36.185Z,11.45
2019-05-09T02:33:09.278Z,11.44
2019-05-09T02:35:56.254Z,11.44
2019-05-09T02:38:19.718Z,11.44
2019-05-09T02:40:51.791Z,11.44
2019-05-09T02:43:24.606Z,11.43
2019-05-09T02:46:11.447Z,11.38
2019-05-09T02:48:43.174Z,11.37
2019-05-09T02:51:14.924Z,11.38
2019-05-09T02:53:48.696Z,11.33
2019-05-09T02:56:21.816Z,11.30
2019-05-09T02:59:05.309Z,11.33
2019-05-09T03:01:49.559Z,11.28
2019-05-09T03:04:21.384Z,11.30
2019-05-09T03:06:54.346Z,11.24
2019-05-09T03:09:28.811Z,11.24
2019-05-09T03:12:21.262Z,11.23
2019-05-09T03:14:38.815Z,11.23
2019-05-09T03:17:11.829Z,11.24
2019-05-09T03:19:44.833Z,11.21
2019-05-09T03:22:20.378Z,11.20
2019-05-09T03:24:52.034Z,11.21
2019-05-09T03:27:48.265Z,11.19
2019-05-09T03:30:21.012Z,11.19
2019-05-09T03:32:53.129Z,11.20
2019-05-09T03:35:24.859Z,11.16
2019-05-09T03:38:08.261Z,11.17
2019-05-09T03:40:40.051Z,11.17
2019-05-09T03:43:13.065Z,11.19
2019-05-09T03:45:49.135Z,11.20
2019-05-09T03:48:34.519Z,11.20
2019-05-09T03:51:08.098Z,11.20
2019-05-09T03:53:40.661Z,11.19
2019-05-09T03:56:15.279Z,11.19
2019-05-09T03:58:47.500Z,11.19
2019-05-09T04:01:19.629Z,11.19
2019-05-09T04:03:51.380Z,11.20
2019-05-09T04:06:24.363Z,11.19
2019-05-09T04:08:58.540Z,11.20
2019-05-09T04:11:31.564Z,11.20
2019-05-09T04:14:21.351Z,11.23
2019-05-09T04:16:52.954Z,11.19
2019-05-09T04:19:27.881Z,11.20
2019-05-09T04:22:02.188Z,11.20
2019-05-09T04:24:33.214Z,11.20
2019-05-09T04:27:07.815Z,11.20
2019-05-09T04:29:39.715Z,11.21
2019-05-09T04:32:11.448Z,11.21
2019-05-09T04:34:43.180Z,11.21
2019-05-09T04:37:15.292Z,11.21
2019-05-09T04:39:47.621Z,11.23
2019-05-09T04:42:19.460Z,11.23
2019-05-09T04:44:57.594Z,11.23
2019-05-09T04:47:28.756Z,11.23
2019-05-09T04:50:07.608Z,11.23
2019-05-09T04:52:39.992Z,11.26
2019-05-09T04:55:12.799Z,11.26
2019-05-09T04:57:45.624Z,11.26
2019-05-09T05:00:19.100Z,11.28
2019-05-09T05:02:52.431Z,11.28
2019-05-09T05:05:24.320Z,11.28
2019-05-09T05:07:57.359Z,11.31
2019-05-09T05:10:30.271Z,11.31
2019-05-09T05:13:02.012Z,11.36
2019-05-09T05:15:33.763Z,11.38
2019-05-09T05:18:05.627Z,11.40
2019-05-09T05:20:38.509Z,11.47
2019-05-09T05:23:11.999Z,11.51
2019-05-09T05:25:43.689Z,11.54
2019-05-09T05:28:17.568Z,11.64
2019-05-09T05:30:51.398Z,11.64
2019-05-09T05:33:27.886Z,11.71
2019-05-09T13:22:52.060Z,16.43
2019-05-09T13:25:34.040Z,18.50
2019-05-09T13:28:08.299Z,20.16
2019-05-09T13:30:39.797Z,20.05
2019-05-09T13:33:14.024Z,19.32
2019-05-09T13:35:45.690Z,18.82
2019-05-09T13:38:18.017Z,18.72
2019-05-09T13:40:53.475Z,20.11
2019-05-09T13:43:24.672Z,21.53
2019-05-09T13:45:58.683Z,21.69
2019-05-09T13:48:55.225Z,20.96
2019-05-09T13:51:04.004Z,20.37
2019-05-09T13:53:35.744Z,19.86
2019-05-09T13:56:08.462Z,19.47
2019-05-09T13:58:41.640Z,19.15
2019-05-09T14:01:14.284Z,18.87
2019-05-09T14:03:45.808Z,18.52
2019-05-09T14:06:17.569Z,18.23
2019-05-09T14:08:49.800Z,19.08
2019-05-09T14:11:23.113Z,20.71
2019-05-09T14:13:54.655Z,20.57
2019-05-09T14:16:28.660Z,19.88
2019-05-09T14:19:23.979Z,19.39
2019-05-09T14:21:33.380Z,19.01
2019-05-09T14:24:14.054Z,18.63
2019-05-09T14:26:40.371Z,18.25
2019-05-09T14:29:13.316Z,17.91
2019-05-09T14:31:45.372Z,18.50
2019-05-09T14:34:19.714Z,19.96
2019-05-09T14:36:51.948Z,20.13
2019-05-09T14:39:23.952Z,19.51
2019-05-09T14:41:57.807Z,19.03
2019-05-09T14:44:30.238Z,18.61
2019-05-09T14:47:02.251Z,18.30
2019-05-09T14:49:41.413Z,17.98
2019-05-09T14:52:08.537Z,18.09
2019-05-09T14:54:40.642Z,19.58
2019-05-09T14:57:14.020Z,20.52
2019-05-09T14:59:45.645Z,19.99
2019-05-09T15:02:20.659Z,19.44
2019-05-09T15:04:52.333Z,18.98
2019-05-09T15:07:24.099Z,18.57
2019-05-09T15:09:57.583Z,18.20
2019-05-09T15:12:31.291Z,17.84
2019-05-09T15:15:07.582Z,18.12
2019-05-09T15:17:39.075Z,19.43
2019-05-09T15:20:12.700Z,19.06
2019-05-09T15:22:47.750Z,18.49
2019-05-09T15:25:20.630Z,18.04
2019-05-09T15:27:53.178Z,17.74
2019-05-09T15:30:24.966Z,19.12
2019-05-09T15:33:01.394Z,19.98
2019-05-09T15:35:33.077Z,19.58
2019-05-09T15:38:11.322Z,18.97
2019-05-09T15:40:42.910Z,18.43
2019-05-09T15:43:14.776Z,18.01
2019-05-09T15:45:57.929Z,17.66
2019-05-09T15:48:29.308Z,18.70
2019-05-09T15:51:01.161Z,19.72
2019-05-09T15:53:38.097Z,19.42
2019-05-09T15:56:09.847Z,18.87
2019-05-09T15:58:41.925Z,18.37
2019-05-09T16:01:13.660Z,17.98
2019-05-09T16:03:48.604Z,17.64
2019-05-09T16:06:22.308Z,18.56
2019-05-09T16:08:58.518Z,20.13
2019-05-09T16:11:32.125Z,20.32
2019-05-09T16:14:03.895Z,19.61
2019-05-09T16:16:35.726Z,19.09
2019-05-09T16:19:09.179Z,18.60
2019-05-09T16:21:40.988Z,18.22
2019-05-09T16:24:18.860Z,17.88
2019-05-09T16:26:53.756Z,19.06
2019-05-09T16:29:30.364Z,19.53
2019-05-09T16:32:03.518Z,18.92
2019-05-09T16:34:40.079Z,18.37
2019-05-09T16:37:13.464Z,17.92
2019-05-09T16:39:47.023Z,17.57
2019-05-09T16:42:21.763Z,18.60
2019-05-09T16:44:54.663Z,20.36
2019-05-09T16:47:28.441Z,20.70
2019-05-09T16:50:01.150Z,19.88
2019-05-09T16:52:39.847Z,19.17
2019-05-09T16:55:12.635Z,18.63
2019-05-09T16:57:44.291Z,18.13
2019-05-09T17:00:30.226Z,17.70
2019-05-09T17:03:01.793Z,18.25
2019-05-09T17:05:33.388Z,19.95
2019-05-09T17:08:05.133Z,20.24
2019-05-09T17:10:38.471Z,19.44
2019-05-09T17:13:10.207Z,18.80
2019-05-09T17:15:41.989Z,18.25
2019-05-09T17:18:15.266Z,17.74
2019-05-09T17:20:50.616Z,18.30
2019-05-09T17:23:24.135Z,19.57
2019-05-09T17:25:57.918Z,19.16
2019-05-09T17:28:29.812Z,18.47
2019-05-09T17:31:04.663Z,17.92
2019-05-09T17:33:37.944Z,17.45
2019-05-09T17:36:10.049Z,18.25
2019-05-09T17:38:43.855Z,19.60
2019-05-09T17:41:19.018Z,19.58
2019-05-09T17:43:54.958Z,18.85
2019-05-09T17:46:28.060Z,18.20
2019-05-09T17:48:59.712Z,17.70
2019-05-09T17:51:33.868Z,17.97
2019-05-09T17:54:07.828Z,19.56
2019-05-09T17:56:40.407Z,19.64
2019-05-09T17:59:18.525Z,18.87
2019-05-09T18:01:51.096Z,18.22
2019-05-09T18:04:22.892Z,17.70
2019-05-09T18:06:54.698Z,17.26
2019-05-09T18:09:28.589Z,16.88
2019-05-09T18:12:00.711Z,17.64
2019-05-09T18:14:33.077Z,18.82
2019-05-09T18:17:05.008Z,19.68
2019-05-09T18:19:38.105Z,19.54
2019-05-09T18:22:10.898Z,18.78
2019-05-09T18:24:42.785Z,18.12
2019-05-09T18:27:14.617Z,17.62
2019-05-09T18:29:47.398Z,17.14
2019-05-09T18:32:31.114Z,16.68
2019-05-09T18:35:13.058Z,17.35
2019-05-09T18:37:48.260Z,18.46
2019-05-09T18:40:21.852Z,19.32
2019-05-09T18:42:53.603Z,19.22
2019-05-09T18:45:30.237Z,18.43
2019-05-09T18:48:02.102Z,17.81
2019-05-09T18:50:33.885Z,17.29
2019-05-09T18:53:05.537Z,16.78
2019-05-09T18:55:37.300Z,16.33
2019-05-09T18:58:10.739Z,15.91
2019-05-09T19:00:45.898Z,16.66
2019-05-09T19:03:17.540Z,17.73
2019-05-09T19:05:49.292Z,18.56
2019-05-09T19:08:22.721Z,18.54
2019-05-09T19:10:56.026Z,17.80
2019-05-09T19:13:27.817Z,17.15
2019-05-09T19:16:16.488Z,16.62
2019-05-09T19:19:08.134Z,16.08
2019-05-09T19:21:41.438Z,15.60
2019-05-09T19:24:13.101Z,16.25
2019-05-09T19:26:44.859Z,17.33
2019-05-09T19:29:18.149Z,18.13
2019-05-09T19:31:49.915Z,18.07
2019-05-09T19:34:21.463Z,17.32
2019-05-09T19:36:53.140Z,16.66
2019-05-09T19:39:24.913Z,16.10
2019-05-09T19:41:57.380Z,15.58
2019-05-09T19:44:29.228Z,15.15
2019-05-09T19:47:03.968Z,15.91
2019-05-09T19:49:36.596Z,17.52
2019-05-09T19:52:09.517Z,18.89
2019-05-09T19:54:41.269Z,18.82
2019-05-09T19:57:13.892Z,17.92
2019-05-09T19:59:50.462Z,17.21
2019-05-09T20:02:22.615Z,16.56
2019-05-09T20:04:57.378Z,16.03
2019-05-09T20:07:32.181Z,15.52
2019-05-09T20:10:09.910Z,15.01
2019-05-09T20:12:59.356Z,14.55
2019-05-09T20:15:30.907Z,15.56
2019-05-09T20:18:02.673Z,17.30
2019-05-09T20:20:34.482Z,18.81
2019-05-09T20:23:06.249Z,18.70
2019-05-09T20:25:38.005Z,17.76
2019-05-09T20:28:09.764Z,16.95
2019-05-09T20:30:43.402Z,16.36
2019-05-09T20:33:17.228Z,15.73
2019-05-09T20:35:55.982Z,15.19
2019-05-09T20:38:31.882Z,14.65
2019-05-09T20:41:09.998Z,14.13
2019-05-09T20:43:44.586Z,13.63
2019-05-09T20:46:16.538Z,14.48
2019-05-09T20:48:48.770Z,16.21
2019-05-09T20:51:27.053Z,17.54
2019-05-09T20:54:19.950Z,17.43
2019-05-09T20:56:37.168Z,16.53
2019-05-09T20:59:10.608Z,15.80
2019-05-09T21:01:42.911Z,15.15
2019-05-09T21:04:15.968Z,14.62
2019-05-09T21:06:48.151Z,14.11
2019-05-09T21:09:21.678Z,13.68
2019-05-09T21:11:53.697Z,14.52
2019-05-09T21:14:25.524Z,16.21
2019-05-09T21:16:57.573Z,17.66
2019-05-09T21:19:29.609Z,17.58
2019-05-09T21:22:01.698Z,16.73
2019-05-09T21:24:33.724Z,15.98
2019-05-09T21:27:05.566Z,15.39
2019-05-09T21:29:38.466Z,14.87
2019-05-09T21:32:10.319Z,14.34
2019-05-09T21:34:42.181Z,13.86
2019-05-09T21:37:14.150Z,13.41
2019-05-09T21:39:46.235Z,12.96
2019-05-09T21:42:18.011Z,13.97
2019-05-09T21:44:49.719Z,15.93
2019-05-09T21:47:21.558Z,17.53
2019-05-09T21:49:54.498Z,17.40
2019-05-09T21:52:27.217Z,16.48
2019-05-09T21:54:58.953Z,15.69
2019-05-09T21:57:31.963Z,15.04
2019-05-09T22:00:05.993Z,14.47
2019-05-09T22:02:39.432Z,13.93
2019-05-09T22:05:12.448Z,13.41
2019-05-09T22:07:44.203Z,12.96
2019-05-09T22:10:16.302Z,12.54
2019-05-09T22:12:48.060Z,13.42
2019-05-09T22:15:20.843Z,15.24
2019-05-09T22:17:52.555Z,16.88
2019-05-09T22:20:25.771Z,16.86
2019-05-09T22:22:57.517Z,15.97
2019-05-09T22:25:29.258Z,15.22
2019-05-09T22:28:00.994Z,14.63
2019-05-09T22:30:32.839Z,14.08
2019-05-09T22:33:04.614Z,13.61
2019-05-09T22:35:36.291Z,13.16
2019-05-09T22:38:08.115Z,14.01
2019-05-09T22:40:39.868Z,15.78
2019-05-09T22:43:13.135Z,17.36
2019-05-09T22:45:45.500Z,17.23
2019-05-09T22:48:17.235Z,16.33
2019-05-09T22:50:48.969Z,15.58
2019-05-09T22:53:20.828Z,14.93
2019-05-09T22:55:52.552Z,14.31
2019-05-09T22:58:24.301Z,13.75
2019-05-09T23:00:56.028Z,13.25
2019-05-09T23:03:27.785Z,12.76
2019-05-09T23:05:59.542Z,12.28
2019-05-09T23:08:31.304Z,12.99
2019-05-09T23:11:03.041Z,14.72
2019-05-09T23:13:36.517Z,16.22
2019-05-09T23:16:09.571Z,16.18
2019-05-09T23:18:41.391Z,15.27
2019-05-09T23:21:16.481Z,14.52
2019-05-09T23:23:56.064Z,13.86
2019-05-09T23:26:27.796Z,13.28
2019-05-09T23:28:59.560Z,12.79
2019-05-09T23:31:38.938Z,12.31
2019-05-09T23:34:10.686Z,11.83
2019-05-09T23:36:42.637Z,11.40
2019-05-09T23:39:25.005Z,12.28
2019-05-09T23:41:56.927Z,14.24
2019-05-09T23:44:28.879Z,15.87
2019-05-09T23:47:00.659Z,15.80
2019-05-09T23:49:32.293Z,14.86
2019-05-09T23:52:04.143Z,14.10
2019-05-09T23:54:53.599Z,13.45
2019-05-09T23:57:43.302Z,12.82
